sensor_id;sensor_type;location;lat;lon;timestamp;pressure;altitude;pressure_sealevel;temperature;humidity
79366;BME280;68833;53.160;17.920;2023-08-06T03:04:31;99562.92;;;15.27;84.19
79366;BME280;68833;53.160;17.920;2023-08-06T08:19:42;99080.89;;;17.85;84.89
79366;BME280;68833;53.160;17.920;2023-08-06T08:22:09;99077.15;;;17.88;84.77
79366;BME280;68833;53.160;17.920;2023-08-06T08:24:37;99072.35;;;17.91;84.93
79366;BME280;68833;53.160;17.920;2023-08-06T08:27:04;99064.95;;;17.93;85.09
79366;BME280;68833;53.160;17.920;2023-08-06T08:29:32;99055.88;;;17.96;85.03
79366;BME280;68833;53.160;17.920;2023-08-06T08:31:59;99042.44;;;18.00;85.02
79366;BME280;68833;53.160;17.920;2023-08-06T08:34:26;99038.69;;;18.00;85.02
79366;BME280;68833;53.160;17.920;2023-08-06T08:36:53;99042.40;;;18.01;85.14
79366;BME280;68833;53.160;17.920;2023-08-06T08:39:20;99030.92;;;18.02;84.82
79366;BME280;68833;53.160;17.920;2023-08-06T08:41:47;99029.23;;;18.04;84.97
79366;BME280;68833;53.160;17.920;2023-08-06T08:44:15;99031.08;;;18.06;84.88
79366;BME280;68833;53.160;17.920;2023-08-06T08:46:43;99030.54;;;18.08;85.05
79366;BME280;68833;53.160;17.920;2023-08-06T08:49:11;99027.84;;;18.09;84.65
79366;BME280;68833;53.160;17.920;2023-08-06T08:51:38;99021.11;;;18.09;84.82
79366;BME280;68833;53.160;17.920;2023-08-06T08:54:07;99015.71;;;18.10;84.88
79366;BME280;68833;53.160;17.920;2023-08-06T08:56:35;99012.50;;;18.13;84.86
79366;BME280;68833;53.160;17.920;2023-08-06T08:59:02;99006.34;;;18.17;85.09
79366;BME280;68833;53.160;17.920;2023-08-06T09:01:29;99003.24;;;18.20;84.91
79366;BME280;68833;53.160;17.920;2023-08-06T09:03:57;99002.05;;;18.25;85.08
79366;BME280;68833;53.160;17.920;2023-08-06T09:06:26;99003.29;;;18.28;84.78
79366;BME280;68833;53.160;17.920;2023-08-06T09:09:48;99009.23;;;18.31;84.89
79366;BME280;68833;53.160;17.920;2023-08-06T09:11:49;99004.11;;;18.34;84.78
79366;BME280;68833;53.160;17.920;2023-08-06T09:14:18;98997.13;;;18.37;84.74
79366;BME280;68833;53.160;17.920;2023-08-06T09:16:45;98992.83;;;18.38;84.69
79366;BME280;68833;53.160;17.920;2023-08-06T09:19:14;98990.46;;;18.41;84.56
79366;BME280;68833;53.160;17.920;2023-08-06T09:21:45;98987.02;;;18.45;84.86
79366;BME280;68833;53.160;17.920;2023-08-06T09:24:15;98979.84;;;18.46;84.71
79366;BME280;68833;53.160;17.920;2023-08-06T09:26:44;98976.68;;;18.48;84.59
79366;BME280;68833;53.160;17.920;2023-08-06T09:29:11;98975.67;;;18.50;84.47
79366;BME280;68833;53.160;17.920;2023-08-06T09:31:43;98968.00;;;18.50;84.43
79366;BME280;68833;53.160;17.920;2023-08-06T09:34:15;98959.44;;;18.50;84.47
79366;BME280;68833;53.160;17.920;2023-08-06T09:36:46;98956.45;;;18.50;84.59
79366;BME280;68833;53.160;17.920;2023-08-06T09:39:15;98949.97;;;18.51;84.59
79366;BME280;68833;53.160;17.920;2023-08-06T09:41:42;98951.30;;;18.52;84.43
79366;BME280;68833;53.160;17.920;2023-08-06T09:44:18;98957.73;;;18.52;84.43
79366;BME280;68833;53.160;17.920;2023-08-06T09:46:49;98953.83;;;18.52;84.71
79366;BME280;68833;53.160;17.920;2023-08-06T09:49:40;98946.38;;;18.54;84.54
79366;BME280;68833;53.160;17.920;2023-08-06T09:52:13;98938.41;;;18.56;84.52
79366;BME280;68833;53.160;17.920;2023-08-06T09:54:40;98928.94;;;18.59;84.46
79366;BME280;68833;53.160;17.920;2023-08-06T09:57:08;98928.72;;;18.60;84.45
79366;BME280;68833;53.160;17.920;2023-08-06T09:59:35;98926.59;;;18.62;84.41
79366;BME280;68833;53.160;17.920;2023-08-06T10:03:58;98915.64;;;18.66;84.32
79366;BME280;68833;53.160;17.920;2023-08-06T10:06:25;98905.05;;;18.65;84.53
79366;BME280;68833;53.160;17.920;2023-08-06T10:08:52;98909.62;;;18.66;84.48
79366;BME280;68833;53.160;17.920;2023-08-06T10:11:20;98899.27;;;18.66;84.39
79366;BME280;68833;53.160;17.920;2023-08-06T10:13:47;98884.66;;;18.69;84.53
79366;BME280;68833;53.160;17.920;2023-08-06T10:16:15;98875.63;;;18.71;84.61
79366;BME280;68833;53.160;17.920;2023-08-06T10:18:42;98869.58;;;18.74;84.55
79366;BME280;68833;53.160;17.920;2023-08-06T10:21:09;98866.63;;;18.78;84.56
79366;BME280;68833;53.160;17.920;2023-08-06T10:23:36;98875.25;;;18.82;84.77
79366;BME280;68833;53.160;17.920;2023-08-06T10:26:06;98875.11;;;18.86;84.82
79366;BME280;68833;53.160;17.920;2023-08-06T10:28:39;98886.41;;;18.87;84.75
79366;BME280;68833;53.160;17.920;2023-08-06T10:31:05;98886.46;;;18.89;84.44
79366;BME280;68833;53.160;17.920;2023-08-06T10:33:43;98877.58;;;18.90;84.31
79366;BME280;68833;53.160;17.920;2023-08-06T10:36:10;98873.11;;;18.90;84.40
79366;BME280;68833;53.160;17.920;2023-08-06T10:38:50;98869.88;;;18.90;84.38
79366;BME280;68833;53.160;17.920;2023-08-06T10:41:37;98867.23;;;18.92;84.55
79366;BME280;68833;53.160;17.920;2023-08-06T10:44:07;98861.33;;;18.95;84.77
79366;BME280;68833;53.160;17.920;2023-08-06T10:46:34;98858.34;;;18.97;84.44
79366;BME280;68833;53.160;17.920;2023-08-06T10:49:00;98857.65;;;18.99;84.50
79366;BME280;68833;53.160;17.920;2023-08-06T10:51:27;98856.55;;;19.02;84.70
79366;BME280;68833;53.160;17.920;2023-08-06T10:53:53;98843.45;;;19.03;84.50
79366;BME280;68833;53.160;17.920;2023-08-06T10:56:20;98831.41;;;19.08;84.68
79366;BME280;68833;53.160;17.920;2023-08-06T10:58:49;98826.96;;;19.12;84.68
79366;BME280;68833;53.160;17.920;2023-08-06T11:01:16;98826.23;;;19.15;84.78
79366;BME280;68833;53.160;17.920;2023-08-06T11:03:44;98814.75;;;19.18;84.69
79366;BME280;68833;53.160;17.920;2023-08-06T11:06:19;98809.10;;;19.23;84.61
79366;BME280;68833;53.160;17.920;2023-08-06T11:08:53;98812.45;;;19.23;84.54
79366;BME280;68833;53.160;17.920;2023-08-06T11:11:21;98806.34;;;19.24;84.61
79366;BME280;68833;53.160;17.920;2023-08-06T11:13:50;98799.90;;;19.27;84.72
79366;BME280;68833;53.160;17.920;2023-08-06T11:16:18;98791.98;;;19.30;84.67
79366;BME280;68833;53.160;17.920;2023-08-06T11:18:45;98782.15;;;19.33;84.68
79366;BME280;68833;53.160;17.920;2023-08-06T11:21:11;98786.11;;;19.35;84.79
79366;BME280;68833;53.160;17.920;2023-08-06T11:23:39;98781.72;;;19.36;84.49
79366;BME280;68833;53.160;17.920;2023-08-06T11:26:07;98772.02;;;19.37;84.52
79366;BME280;68833;53.160;17.920;2023-08-06T11:28:34;98768.83;;;19.37;84.50
79366;BME280;68833;53.160;17.920;2023-08-06T11:31:00;98767.15;;;19.38;84.50
79366;BME280;68833;53.160;17.920;2023-08-06T11:33:28;98759.89;;;19.41;84.41
79366;BME280;68833;53.160;17.920;2023-08-06T11:35:55;98753.35;;;19.42;84.47
79366;BME280;68833;53.160;17.920;2023-08-06T11:38:25;98750.83;;;19.43;84.62
79366;BME280;68833;53.160;17.920;2023-08-06T11:40:52;98742.43;;;19.43;84.28
79366;BME280;68833;53.160;17.920;2023-08-06T11:43:19;98734.27;;;19.43;84.27
79366;BME280;68833;53.160;17.920;2023-08-06T11:45:51;98721.05;;;19.39;84.33
79366;BME280;68833;53.160;17.920;2023-08-06T11:48:19;98712.40;;;19.42;84.52
79366;BME280;68833;53.160;17.920;2023-08-06T11:50:46;98712.26;;;19.42;84.49
79366;BME280;68833;53.160;17.920;2023-08-06T11:53:13;98715.48;;;19.41;84.33
79366;BME280;68833;53.160;17.920;2023-08-06T11:55:40;98713.63;;;19.43;84.51
79366;BME280;68833;53.160;17.920;2023-08-06T11:58:07;98716.45;;;19.45;84.52
79366;BME280;68833;53.160;17.920;2023-08-06T12:00:33;98715.58;;;19.47;84.59
79366;BME280;68833;53.160;17.920;2023-08-06T12:02:59;98713.06;;;19.47;84.53
79366;BME280;68833;53.160;17.920;2023-08-06T12:05:30;98704.40;;;19.47;84.46
79366;BME280;68833;53.160;17.920;2023-08-06T12:08:00;98698.98;;;19.47;84.27
79366;BME280;68833;53.160;17.920;2023-08-06T12:10:29;98699.23;;;19.49;84.30
79366;BME280;68833;53.160;17.920;2023-08-06T12:12:56;98687.48;;;19.51;84.28
79366;BME280;68833;53.160;17.920;2023-08-06T12:15:23;98683.77;;;19.53;84.25
79366;BME280;68833;53.160;17.920;2023-08-06T12:17:50;98685.77;;;19.54;84.29
79366;BME280;68833;53.160;17.920;2023-08-06T12:20:16;98691.27;;;19.57;84.21
79366;BME280;68833;53.160;17.920;2023-08-06T12:22:42;98694.55;;;19.59;84.11
79366;BME280;68833;53.160;17.920;2023-08-06T12:25:10;98698.70;;;19.58;84.12
79366;BME280;68833;53.160;17.920;2023-08-06T12:27:41;98700.71;;;19.57;84.16
79366;BME280;68833;53.160;17.920;2023-08-06T12:30:09;98692.68;;;19.58;84.08
79366;BME280;68833;53.160;17.920;2023-08-06T12:32:36;98689.34;;;19.59;84.11
79366;BME280;68833;53.160;17.920;2023-08-06T12:35:03;98690.00;;;19.60;84.04
79366;BME280;68833;53.160;17.920;2023-08-06T12:37:30;98688.05;;;19.62;83.95
79366;BME280;68833;53.160;17.920;2023-08-06T12:39:57;98689.10;;;19.62;83.74
79366;BME280;68833;53.160;17.920;2023-08-06T12:42:23;98688.94;;;19.64;83.90
79366;BME280;68833;53.160;17.920;2023-08-06T12:44:50;98682.05;;;19.66;83.91
79366;BME280;68833;53.160;17.920;2023-08-06T12:47:17;98678.61;;;19.66;83.65
79366;BME280;68833;53.160;17.920;2023-08-06T12:49:44;98668.00;;;19.68;83.87
79366;BME280;68833;53.160;17.920;2023-08-06T12:52:10;98657.00;;;19.67;84.07
79366;BME280;68833;53.160;17.920;2023-08-06T12:54:38;98654.38;;;19.67;84.06
79366;BME280;68833;53.160;17.920;2023-08-06T12:57:05;98653.15;;;19.69;84.16
79366;BME280;68833;53.160;17.920;2023-08-06T12:59:32;98645.35;;;19.70;84.13
79366;BME280;68833;53.160;17.920;2023-08-06T13:02:07;98637.02;;;19.72;83.90
79366;BME280;68833;53.160;17.920;2023-08-06T13:04:34;98635.55;;;19.73;83.80
79366;BME280;68833;53.160;17.920;2023-08-06T13:07:00;98630.83;;;19.74;83.90
79366;BME280;68833;53.160;17.920;2023-08-06T13:09:29;98627.72;;;19.75;84.00
79366;BME280;68833;53.160;17.920;2023-08-06T13:11:56;98624.69;;;19.75;83.80
79366;BME280;68833;53.160;17.920;2023-08-06T13:14:23;98623.17;;;19.76;83.82
79366;BME280;68833;53.160;17.920;2023-08-06T13:16:50;98620.20;;;19.80;83.92
79366;BME280;68833;53.160;17.920;2023-08-06T13:19:16;98610.67;;;19.83;83.91
79366;BME280;68833;53.160;17.920;2023-08-06T13:24:17;98598.23;;;19.90;83.96
79366;BME280;68833;53.160;17.920;2023-08-06T13:26:43;98599.34;;;19.91;84.06
79366;BME280;68833;53.160;17.920;2023-08-06T13:29:10;98589.61;;;19.93;84.17
79366;BME280;68833;53.160;17.920;2023-08-06T13:31:36;98587.84;;;19.97;84.41
79366;BME280;68833;53.160;17.920;2023-08-06T13:34:03;98593.99;;;20.02;84.62
79366;BME280;68833;53.160;17.920;2023-08-06T13:36:30;98590.75;;;20.07;84.51
79366;BME280;68833;53.160;17.920;2023-08-06T13:38:57;98589.38;;;20.11;84.46
79366;BME280;68833;53.160;17.920;2023-08-06T13:41:23;98579.46;;;20.17;84.45
79366;BME280;68833;53.160;17.920;2023-08-06T13:43:49;98582.66;;;20.21;84.47
79366;BME280;68833;53.160;17.920;2023-08-06T13:46:17;98597.36;;;20.25;84.28
79366;BME280;68833;53.160;17.920;2023-08-06T16:50:25;98740.69;;;17.55;81.27
79366;BME280;68833;53.160;17.920;2023-08-06T16:53:08;98735.22;;;17.50;81.03
79366;BME280;68833;53.160;17.920;2023-08-06T16:55:36;98741.95;;;17.48;81.08
79366;BME280;68833;53.160;17.920;2023-08-06T16:58:03;98734.86;;;17.45;81.17
79366;BME280;68833;53.160;17.920;2023-08-06T17:00:29;98716.45;;;17.41;81.13
79366;BME280;68833;53.160;17.920;2023-08-06T17:02:56;98717.27;;;17.40;81.18
79366;BME280;68833;53.160;17.920;2023-08-06T17:05:39;98737.95;;;17.39;81.20
79366;BME280;68833;53.160;17.920;2023-08-06T17:08:26;98755.66;;;17.39;81.19
79366;BME280;68833;53.160;17.920;2023-08-06T17:11:03;98750.48;;;17.40;81.21
79366;BME280;68833;53.160;17.920;2023-08-06T17:13:30;98747.82;;;17.37;80.97
79366;BME280;68833;53.160;17.920;2023-08-06T17:15:58;98757.87;;;17.35;80.92
79366;BME280;68833;53.160;17.920;2023-08-06T17:18:48;98759.77;;;17.33;81.09
79366;BME280;68833;53.160;17.920;2023-08-06T17:21:36;98763.72;;;17.30;81.02
79366;BME280;68833;53.160;17.920;2023-08-06T17:24:50;98766.84;;;17.28;80.97
79366;BME280;68833;53.160;17.920;2023-08-06T17:28:21;98752.55;;;17.22;80.98
79366;BME280;68833;53.160;17.920;2023-08-06T17:31:49;98767.98;;;17.17;80.56
79366;BME280;68833;53.160;17.920;2023-08-06T17:34:37;98778.48;;;17.11;80.83
79366;BME280;68833;53.160;17.920;2023-08-06T17:38:25;98789.33;;;17.08;80.93
79366;BME280;68833;53.160;17.920;2023-08-06T17:42:08;98784.63;;;17.07;80.69
79366;BME280;68833;53.160;17.920;2023-08-06T17:46:02;98785.36;;;17.01;80.70
79366;BME280;68833;53.160;17.920;2023-08-06T17:49:50;98787.43;;;16.96;81.04
79366;BME280;68833;53.160;17.920;2023-08-06T17:53:40;98791.90;;;16.90;80.79
79366;BME280;68833;53.160;17.920;2023-08-06T17:57:11;98793.27;;;16.82;80.91
79366;BME280;68833;53.160;17.920;2023-08-06T18:01:30;98788.65;;;16.77;80.84
79366;BME280;68833;53.160;17.920;2023-08-06T18:05:19;98790.22;;;16.69;80.68
79366;BME280;68833;53.160;17.920;2023-08-06T18:08:29;98796.65;;;16.66;80.89
79366;BME280;68833;53.160;17.920;2023-08-06T18:12:26;98803.55;;;16.63;80.71
79366;BME280;68833;53.160;17.920;2023-08-06T18:15:49;98798.83;;;16.62;80.99
79366;BME280;68833;53.160;17.920;2023-08-06T18:20:00;98794.58;;;16.59;81.03
79366;BME280;68833;53.160;17.920;2023-08-06T18:24:10;98798.56;;;16.52;81.44
79366;BME280;68833;53.160;17.920;2023-08-06T18:27:49;98810.00;;;16.45;81.12
79366;BME280;68833;53.160;17.920;2023-08-06T18:30:58;98818.05;;;16.44;81.08
79366;BME280;68833;53.160;17.920;2023-08-06T18:33:25;98809.70;;;16.45;81.56
79366;BME280;68833;53.160;17.920;2023-08-06T18:35:55;98809.79;;;16.43;81.00
79366;BME280;68833;53.160;17.920;2023-08-06T18:38:49;98828.37;;;16.41;81.65
79366;BME280;68833;53.160;17.920;2023-08-06T18:41:17;98837.45;;;16.40;81.32
79366;BME280;68833;53.160;17.920;2023-08-06T18:43:45;98839.53;;;16.41;81.40
79366;BME280;68833;53.160;17.920;2023-08-06T18:46:56;98839.98;;;16.39;81.24
79366;BME280;68833;53.160;17.920;2023-08-06T18:49:36;98837.52;;;16.36;80.96
79366;BME280;68833;53.160;17.920;2023-08-06T18:52:31;98829.77;;;16.32;81.33
79366;BME280;68833;53.160;17.920;2023-08-06T18:56:10;98829.31;;;16.28;81.32
79366;BME280;68833;53.160;17.920;2023-08-06T18:59:34;98821.26;;;16.27;81.53
79366;BME280;68833;53.160;17.920;2023-08-06T19:02:08;98826.05;;;16.27;81.57
79366;BME280;68833;53.160;17.920;2023-08-06T19:04:39;98831.17;;;16.24;81.22
79366;BME280;68833;53.160;17.920;2023-08-06T19:08:08;98832.98;;;16.18;81.41
79366;BME280;68833;53.160;17.920;2023-08-06T19:11:16;98844.27;;;16.13;81.64
79366;BME280;68833;53.160;17.920;2023-08-06T19:14:18;98843.02;;;16.13;81.53
79366;BME280;68833;53.160;17.920;2023-08-06T19:17:33;98847.77;;;16.14;81.59
79366;BME280;68833;53.160;17.920;2023-08-06T19:20:16;98856.66;;;16.13;81.71
79366;BME280;68833;53.160;17.920;2023-08-06T19:22:52;98860.73;;;16.13;81.52
79366;BME280;68833;53.160;17.920;2023-08-06T19:26:03;98857.42;;;16.09;81.30
79366;BME280;68833;53.160;17.920;2023-08-06T19:29:08;98855.98;;;16.04;81.34
79366;BME280;68833;53.160;17.920;2023-08-06T19:31:36;98851.51;;;16.02;81.92
79366;BME280;68833;53.160;17.920;2023-08-06T19:34:54;98847.63;;;15.98;81.59
79366;BME280;68833;53.160;17.920;2023-08-06T19:37:31;98843.45;;;15.94;81.57
79366;BME280;68833;53.160;17.920;2023-08-06T19:40:26;98842.59;;;15.88;81.40
79366;BME280;68833;53.160;17.920;2023-08-06T19:42:55;98832.89;;;15.87;81.80
79366;BME280;68833;53.160;17.920;2023-08-06T19:46:06;98838.04;;;15.87;81.41
79366;BME280;68833;53.160;17.920;2023-08-06T19:49:23;98831.44;;;15.82;81.32
79366;BME280;68833;53.160;17.920;2023-08-06T19:51:51;98821.70;;;15.76;81.37
79366;BME280;68833;53.160;17.920;2023-08-06T19:54:27;98814.09;;;15.73;81.82
79366;BME280;68833;53.160;17.920;2023-08-06T19:57:22;98814.85;;;15.72;81.59
79366;BME280;68833;53.160;17.920;2023-08-06T19:59:52;98810.44;;;15.72;81.67
79366;BME280;68833;53.160;17.920;2023-08-06T20:02:21;98813.10;;;15.72;81.69
79366;BME280;68833;53.160;17.920;2023-08-06T20:04:47;98815.69;;;15.70;81.55
79366;BME280;68833;53.160;17.920;2023-08-06T20:07:14;98824.73;;;15.69;81.86
79366;BME280;68833;53.160;17.920;2023-08-06T20:09:41;98824.54;;;15.70;81.65
79366;BME280;68833;53.160;17.920;2023-08-06T20:12:08;98826.66;;;15.70;81.83
79366;BME280;68833;53.160;17.920;2023-08-06T20:14:35;98828.16;;;15.71;81.79
79366;BME280;68833;53.160;17.920;2023-08-06T20:17:41;98836.60;;;15.73;81.58
79366;BME280;68833;53.160;17.920;2023-08-06T20:20:10;98846.86;;;15.69;81.66
79366;BME280;68833;53.160;17.920;2023-08-06T20:22:53;98844.33;;;15.64;81.42
79366;BME280;68833;53.160;17.920;2023-08-06T20:25:23;98838.54;;;15.61;81.91
79366;BME280;68833;53.160;17.920;2023-08-06T20:27:50;98845.49;;;15.60;81.41
79366;BME280;68833;53.160;17.920;2023-08-06T20:30:17;98841.70;;;15.58;81.65
79366;BME280;68833;53.160;17.920;2023-08-06T20:32:46;98841.58;;;15.57;82.21
79366;BME280;68833;53.160;17.920;2023-08-06T20:35:14;98843.58;;;15.56;81.70
79366;BME280;68833;53.160;17.920;2023-08-06T20:37:45;98847.60;;;15.54;81.82
79366;BME280;68833;53.160;17.920;2023-08-06T20:40:14;98854.96;;;15.52;81.88
79366;BME280;68833;53.160;17.920;2023-08-06T20:42:42;98862.23;;;15.51;82.07
79366;BME280;68833;53.160;17.920;2023-08-06T20:45:10;98859.60;;;15.51;81.95
79366;BME280;68833;53.160;17.920;2023-08-06T20:47:37;98858.75;;;15.50;82.04
79366;BME280;68833;53.160;17.920;2023-08-06T20:50:04;98857.07;;;15.49;82.21
79366;BME280;68833;53.160;17.920;2023-08-06T20:52:33;98859.98;;;15.48;81.90
79366;BME280;68833;53.160;17.920;2023-08-06T20:54:59;98862.05;;;15.46;81.94
79366;BME280;68833;53.160;17.920;2023-08-06T20:57:27;98865.48;;;15.45;82.26
79366;BME280;68833;53.160;17.920;2023-08-06T20:59:55;98869.95;;;15.44;82.06
79366;BME280;68833;53.160;17.920;2023-08-06T21:02:24;98878.11;;;15.44;82.16
79366;BME280;68833;53.160;17.920;2023-08-06T21:04:52;98874.42;;;15.43;82.26
79366;BME280;68833;53.160;17.920;2023-08-06T21:07:19;98870.58;;;15.42;82.10
79366;BME280;68833;53.160;17.920;2023-08-06T21:09:46;98870.25;;;15.42;82.08
79366;BME280;68833;53.160;17.920;2023-08-06T21:12:15;98866.65;;;15.40;82.33
79366;BME280;68833;53.160;17.920;2023-08-06T21:14:44;98865.70;;;15.38;81.98
79366;BME280;68833;53.160;17.920;2023-08-06T21:17:10;98871.23;;;15.34;81.62
79366;BME280;68833;53.160;17.920;2023-08-06T21:19:38;98870.65;;;15.32;82.19
79366;BME280;68833;53.160;17.920;2023-08-06T21:22:06;98867.88;;;15.31;81.94
79366;BME280;68833;53.160;17.920;2023-08-06T21:24:35;98875.00;;;15.30;82.02
79366;BME280;68833;53.160;17.920;2023-08-06T21:27:02;98878.43;;;15.28;82.08
79366;BME280;68833;53.160;17.920;2023-08-06T21:29:28;98881.14;;;15.25;82.19
79366;BME280;68833;53.160;17.920;2023-08-06T21:31:56;98886.13;;;15.21;81.91
79366;BME280;68833;53.160;17.920;2023-08-06T21:34:25;98884.15;;;15.18;82.24
79366;BME280;68833;53.160;17.920;2023-08-06T21:36:54;98888.66;;;15.17;82.17
79366;BME280;68833;53.160;17.920;2023-08-06T21:39:22;98895.23;;;15.13;82.21
79366;BME280;68833;53.160;17.920;2023-08-06T21:41:48;98903.12;;;15.11;82.45
79366;BME280;68833;53.160;17.920;2023-08-06T21:48:48;98894.38;;;15.07;82.44
79366;BME280;68833;53.160;17.920;2023-08-06T21:51:19;98897.75;;;15.06;82.43
79366;BME280;68833;53.160;17.920;2023-08-06T21:53:47;98913.61;;;15.04;82.26
79366;BME280;68833;53.160;17.920;2023-08-06T21:56:14;98915.89;;;15.01;82.52
79366;BME280;68833;53.160;17.920;2023-08-06T21:58:49;98916.62;;;14.97;82.54
79366;BME280;68833;53.160;17.920;2023-08-06T22:01:16;98917.06;;;14.96;82.60
79366;BME280;68833;53.160;17.920;2023-08-06T22:03:50;98930.38;;;14.95;82.56
79366;BME280;68833;53.160;17.920;2023-08-06T22:08:40;98942.77;;;14.98;82.74
79366;BME280;68833;53.160;17.920;2023-08-06T22:11:09;98941.27;;;14.92;82.54
79366;BME280;68833;53.160;17.920;2023-08-06T22:13:39;98940.89;;;14.90;82.63
79366;BME280;68833;53.160;17.920;2023-08-06T22:16:08;98940.80;;;14.88;82.70
79366;BME280;68833;53.160;17.920;2023-08-06T22:18:36;98937.23;;;14.86;82.77
79366;BME280;68833;53.160;17.920;2023-08-06T22:21:03;98937.65;;;14.85;82.79
79366;BME280;68833;53.160;17.920;2023-08-06T22:23:32;98936.69;;;14.83;82.83
79366;BME280;68833;53.160;17.920;2023-08-06T22:26:03;98933.73;;;14.82;82.80
79366;BME280;68833;53.160;17.920;2023-08-06T22:28:32;98936.64;;;14.81;82.93
79366;BME280;68833;53.160;17.920;2023-08-06T22:31:01;98932.01;;;14.81;82.91
79366;BME280;68833;53.160;17.920;2023-08-06T22:33:30;98938.70;;;14.81;82.82
79366;BME280;68833;53.160;17.920;2023-08-06T22:35:58;98945.26;;;14.81;82.71
79366;BME280;68833;53.160;17.920;2023-08-06T22:38:27;98948.88;;;14.80;82.74
79366;BME280;68833;53.160;17.920;2023-08-06T22:40:55;98942.34;;;14.76;82.73
79366;BME280;68833;53.160;17.920;2023-08-06T22:43:25;98937.54;;;14.74;82.92
79366;BME280;68833;53.160;17.920;2023-08-06T22:45:54;98939.06;;;14.72;82.80
79366;BME280;68833;53.160;17.920;2023-08-06T22:48:22;98938.13;;;14.70;82.97
79366;BME280;68833;53.160;17.920;2023-08-06T22:51:12;98936.48;;;14.67;82.89
79366;BME280;68833;53.160;17.920;2023-08-06T22:53:47;98936.85;;;14.66;82.93
79366;BME280;68833;53.160;17.920;2023-08-06T22:56:14;98937.34;;;14.64;83.08
79366;BME280;68833;53.160;17.920;2023-08-06T22:58:47;98936.23;;;14.61;83.05
79366;BME280;68833;53.160;17.920;2023-08-06T23:01:18;98936.89;;;14.59;83.07
79366;BME280;68833;53.160;17.920;2023-08-06T23:03:48;98938.60;;;14.57;82.97
79366;BME280;68833;53.160;17.920;2023-08-06T23:06:17;98943.36;;;14.54;82.86
79366;BME280;68833;53.160;17.920;2023-08-06T23:08:46;98940.95;;;14.49;82.82
79366;BME280;68833;53.160;17.920;2023-08-06T23:11:19;98934.66;;;14.48;82.90
79366;BME280;68833;53.160;17.920;2023-08-06T23:13:52;98939.98;;;14.50;83.09
79366;BME280;68833;53.160;17.920;2023-08-06T23:16:22;98946.84;;;14.48;82.91
79366;BME280;68833;53.160;17.920;2023-08-06T23:18:51;98943.91;;;14.46;82.94
79366;BME280;68833;53.160;17.920;2023-08-06T23:21:20;98949.69;;;14.44;82.87
79366;BME280;68833;53.160;17.920;2023-08-06T23:23:50;98958.00;;;14.40;83.05
79366;BME280;68833;53.160;17.920;2023-08-06T23:26:22;98960.63;;;14.34;82.97
79366;BME280;68833;53.160;17.920;2023-08-06T23:28:52;98972.49;;;14.30;83.16
79366;BME280;68833;53.160;17.920;2023-08-06T23:31:30;98975.90;;;14.29;83.32
79366;BME280;68833;53.160;17.920;2023-08-06T23:34:01;98985.41;;;14.29;83.49
79366;BME280;68833;53.160;17.920;2023-08-06T23:36:30;98985.14;;;14.28;83.48
79366;BME280;68833;53.160;17.920;2023-08-06T23:39:02;98989.47;;;14.26;83.23
79366;BME280;68833;53.160;17.920;2023-08-06T23:41:32;98991.08;;;14.22;83.02
79366;BME280;68833;53.160;17.920;2023-08-06T23:44:03;98990.56;;;14.19;83.39
79366;BME280;68833;53.160;17.920;2023-08-06T23:46:36;98994.36;;;14.20;83.18
79366;BME280;68833;53.160;17.920;2023-08-06T23:49:09;98996.87;;;14.20;83.10
79366;BME280;68833;53.160;17.920;2023-08-06T23:51:42;99005.10;;;14.21;83.05
79366;BME280;68833;53.160;17.920;2023-08-06T23:54:30;99001.96;;;14.20;83.20
79366;BME280;68833;53.160;17.920;2023-08-06T23:56:59;99005.88;;;14.20;83.25
79366;BME280;68833;53.160;17.920;2023-08-06T23:59:29;99008.11;;;14.17;83.41
